createdAt,value
2016-07-13T00:00:12.119Z,81.85
2016-07-13T00:01:12.098Z,81.56
2016-07-13T00:02:12.075Z,81.56
2016-07-13T00:03:12.066Z,81.37
2016-07-13T00:04:12.037Z,81.71
2016-07-13T00:05:12.015Z,81.66
2016-07-13T00:06:12.001Z,81.43
2016-07-13T00:07:11.975Z,81.95
2016-07-13T00:08:11.956Z,81.81
2016-07-13T00:09:11.934Z,81.66
2016-07-13T00:10:11.913Z,81.81
2016-07-13T00:11:11.891Z,82
2016-07-13T00:12:11.874Z,82
2016-07-13T00:13:11.855Z,82.38
2016-07-13T00:14:11.831Z,82.38
2016-07-13T00:15:11.808Z,82.29
2016-07-13T00:16:11.793Z,82
2016-07-13T00:17:11.768Z,82.19
2016-07-13T00:18:11.746Z,82.09
2016-07-13T00:19:11.728Z,82.48
2016-07-13T00:20:11.708Z,81.81
2016-07-13T00:21:11.684Z,82.57
2016-07-13T00:22:11.664Z,82.38
2016-07-13T00:23:11.644Z,82.48
2016-07-13T00:24:11.625Z,82.19
2016-07-13T00:25:11.604Z,82.29
2016-07-13T00:26:11.580Z,82.29
2016-07-13T00:27:11.563Z,82.38
2016-07-13T00:28:11.548Z,82.57
2016-07-13T00:29:11.518Z,82.67
2016-07-13T00:30:11.500Z,82.86
2016-07-13T00:31:11.480Z,82.48
2016-07-13T00:32:11.456Z,82.86
2016-07-13T00:33:11.435Z,82.67
2016-07-13T00:34:11.416Z,82.96
2016-07-13T00:35:11.394Z,83.15
2016-07-13T00:36:11.374Z,83.34
2016-07-13T00:37:11.353Z,82.96
2016-07-13T00:38:11.330Z,83.05
2016-07-13T00:39:11.310Z,82.63
2016-07-13T00:40:11.292Z,83.05
2016-07-13T00:41:11.268Z,82.57
2016-07-13T00:42:11.249Z,82.76
2016-07-13T00:43:11.228Z,83.34
2016-07-13T00:44:11.204Z,83.01
2016-07-13T00:45:11.185Z,83.01
2016-07-13T00:46:11.164Z,83.11
2016-07-13T00:47:11.142Z,83.15
2016-07-13T00:48:11.122Z,83.11
2016-07-13T00:49:11.102Z,83.3
2016-07-13T00:50:11.081Z,83.2
2016-07-13T00:51:11.057Z,83.01
2016-07-13T00:52:11.039Z,83.11
2016-07-13T00:53:11.016Z,83.3
2016-07-13T00:54:10.994Z,83.11
2016-07-13T00:55:10.972Z,83.11
2016-07-13T00:56:10.951Z,83.11
2016-07-13T00:57:10.930Z,82.92
2016-07-13T00:58:10.911Z,83.3
2016-07-13T00:59:10.890Z,83.2
2016-07-13T01:00:10.870Z,82.92
2016-07-13T01:01:10.847Z,82.82
2016-07-13T01:02:10.827Z,82.82
2016-07-13T01:03:10.809Z,83.11
2016-07-13T01:04:10.783Z,82.53
2016-07-13T01:05:10.761Z,82.63
2016-07-13T01:06:10.740Z,82.53
2016-07-13T01:07:10.718Z,82.53
2016-07-13T01:08:10.699Z,83.11
2016-07-13T01:09:10.678Z,82.73
2016-07-13T01:10:10.656Z,83.01
2016-07-13T01:11:10.636Z,83.39
2016-07-13T01:12:10.615Z,83.3
2016-07-13T01:13:10.592Z,83.3
2016-07-13T01:14:10.573Z,83.2
2016-07-13T01:15:10.551Z,83.16
2016-07-13T01:16:10.527Z,83.2
2016-07-13T01:17:10.505Z,83.16
2016-07-13T01:18:10.487Z,83.2
2016-07-13T01:19:10.466Z,83.2
2016-07-13T01:20:10.443Z,83.2
2016-07-13T01:21:10.422Z,83.3
2016-07-13T01:22:10.400Z,82.92
2016-07-13T01:23:10.379Z,82.87
2016-07-13T01:24:10.357Z,82.87
2016-07-13T01:25:10.337Z,82.87
2016-07-13T01:26:10.316Z,82.97
2016-07-13T01:27:10.293Z,82.97
2016-07-13T01:28:10.273Z,83.16
2016-07-13T01:29:10.251Z,82.59
2016-07-13T01:30:10.232Z,82.78
2016-07-13T01:31:10.210Z,83.01
2016-07-13T01:32:10.185Z,82.78
2016-07-13T01:33:10.870Z,82.49
2016-07-13T01:34:10.145Z,82.97
2016-07-13T01:35:10.121Z,83.06
2016-07-13T01:36:10.101Z,83.16
2016-07-13T01:37:10.079Z,82.97
2016-07-13T01:38:10.058Z,83.06
2016-07-13T01:39:10.038Z,82.97
2016-07-13T01:40:10.015Z,82.87
2016-07-13T01:41:09.994Z,82.87
2016-07-13T01:42:09.973Z,83.45
2016-07-13T01:43:09.951Z,83.45
2016-07-13T01:44:09.930Z,83.16
2016-07-13T01:45:09.907Z,83.06
2016-07-13T01:46:09.886Z,83.16
2016-07-13T01:47:09.865Z,83.06
2016-07-13T01:48:09.842Z,82.97
2016-07-13T01:49:09.822Z,82.97
2016-07-13T01:50:09.801Z,82.97
2016-07-13T01:51:09.779Z,82.97
2016-07-13T01:52:09.759Z,83.16
2016-07-13T01:53:09.734Z,83.16
2016-07-13T01:54:09.714Z,83.26
2016-07-13T01:55:09.691Z,83.36
2016-07-13T01:56:09.671Z,82.97
2016-07-13T01:57:09.650Z,82.97
2016-07-13T01:58:09.625Z,82.97
2016-07-13T01:59:09.605Z,83.06
2016-07-13T02:00:09.585Z,83.06
2016-07-13T02:01:09.562Z,83.06
2016-07-13T02:02:09.664Z,83.06
2016-07-13T02:03:09.520Z,83.06
2016-07-13T02:04:09.498Z,83.36
2016-07-13T02:05:09.474Z,82.68
2016-07-13T02:06:09.456Z,82.59
2016-07-13T02:07:09.434Z,82.78
2016-07-13T02:08:09.413Z,82.78
2016-07-13T02:09:09.401Z,82.97
2016-07-13T02:10:09.370Z,82.87
2016-07-13T02:11:09.345Z,82.87
2016-07-13T02:12:09.325Z,82.97
2016-07-13T02:13:09.303Z,82.87
2016-07-13T02:14:09.280Z,82.97
2016-07-13T02:15:09.258Z,83.26
2016-07-13T02:16:09.239Z,83.06
2016-07-13T02:17:09.216Z,83.26
2016-07-13T02:18:09.243Z,83.06
2016-07-13T02:19:09.174Z,82.49
2016-07-13T02:20:09.150Z,82.49
2016-07-13T02:21:09.128Z,82.87
2016-07-13T02:22:09.106Z,82.97
2016-07-13T02:23:09.087Z,82.97
2016-07-13T02:24:09.066Z,82.68
2016-07-13T02:25:09.044Z,82.59
2016-07-13T02:26:09.711Z,83.06
2016-07-13T02:27:08.997Z,82.49
2016-07-13T02:28:08.984Z,82.78
2016-07-13T02:29:08.952Z,82.87
2016-07-13T02:30:08.931Z,82.45
2016-07-13T02:31:08.912Z,82.68
2016-07-13T02:32:08.890Z,83.26
2016-07-13T02:33:08.871Z,83.26
2016-07-13T02:34:08.845Z,83.16
2016-07-13T02:35:08.823Z,82.97
2016-07-13T02:36:08.803Z,82.97
2016-07-13T02:37:08.781Z,82.93
2016-07-13T02:38:08.760Z,82.87
2016-07-13T02:39:08.735Z,83.12
2016-07-13T02:40:08.715Z,83.12
2016-07-13T02:41:08.694Z,82.93
2016-07-13T02:42:08.670Z,83.31
2016-07-13T02:43:08.650Z,83.03
2016-07-13T02:44:08.627Z,83.31
2016-07-13T02:45:08.604Z,83.03
2016-07-13T02:46:08.583Z,83.22
2016-07-13T02:47:08.563Z,83.69
2016-07-13T02:48:08.543Z,83.89
2016-07-13T02:49:08.516Z,83.6
2016-07-13T02:50:08.499Z,83.6
2016-07-13T02:51:08.474Z,83.6
2016-07-13T02:52:08.451Z,83.6
2016-07-13T02:53:08.442Z,83.79
2016-07-13T02:54:08.409Z,83.6
2016-07-13T02:55:08.383Z,83.69
2016-07-13T02:56:08.364Z,83.6
2016-07-13T02:57:08.351Z,83.4
2016-07-13T02:58:08.319Z,83.4
2016-07-13T02:59:08.302Z,83.5
2016-07-13T03:00:08.280Z,83.5
2016-07-13T03:01:08.255Z,83.4
2016-07-13T03:02:08.231Z,83.6
2016-07-13T03:03:08.211Z,83.6
2016-07-13T03:04:08.191Z,83.4
2016-07-13T03:05:08.167Z,83.6
2016-07-13T03:06:08.146Z,83.5
2016-07-13T03:07:08.125Z,83.6
2016-07-13T03:08:08.101Z,83.6
2016-07-13T03:09:08.081Z,83.79
2016-07-13T03:10:08.058Z,83.98
2016-07-13T03:11:08.037Z,83.79
2016-07-13T03:12:08.015Z,83.98
2016-07-13T03:13:07.990Z,83.89
2016-07-13T03:14:07.970Z,83.98
2016-07-13T03:15:07.951Z,83.6
2016-07-13T03:16:07.927Z,83.69
2016-07-13T03:17:07.903Z,83.6
2016-07-13T03:18:07.933Z,83.79
2016-07-13T03:19:07.858Z,83.69
2016-07-13T03:20:07.838Z,83.6
2016-07-13T03:21:07.817Z,83.69
2016-07-13T03:22:07.793Z,83.6
2016-07-13T03:23:07.773Z,83.69
2016-07-13T03:24:07.752Z,83.6
2016-07-13T03:25:07.734Z,83.79
2016-07-13T03:26:07.707Z,83.89
2016-07-13T03:27:07.687Z,83.98
2016-07-13T03:28:07.662Z,83.89
2016-07-13T03:29:07.642Z,83.98
2016-07-13T03:30:07.620Z,83.79
2016-07-13T03:31:07.595Z,83.6
2016-07-13T03:32:07.573Z,83.98
2016-07-13T03:33:07.567Z,83.98
2016-07-13T03:34:08.224Z,83.6
2016-07-13T03:35:07.506Z,83.79
2016-07-13T03:36:07.487Z,83.6
2016-07-13T03:37:07.466Z,83.79
2016-07-13T03:38:07.443Z,83.69
2016-07-13T03:39:07.423Z,83.5
2016-07-13T03:40:07.400Z,83.69
2016-07-13T03:41:07.377Z,83.79
2016-07-13T03:42:07.353Z,83.6
2016-07-13T03:43:07.337Z,83.79
2016-07-13T03:44:07.314Z,83.6
2016-07-13T03:45:07.286Z,83.5
2016-07-13T03:46:07.265Z,83.89
2016-07-13T03:47:07.244Z,83.79
2016-07-13T03:48:07.220Z,83.89
2016-07-13T03:49:07.202Z,83.89
2016-07-13T03:50:07.179Z,83.6
2016-07-13T03:51:07.157Z,83.6
2016-07-13T03:52:07.134Z,83.5
2016-07-13T03:53:07.114Z,83.69
2016-07-13T03:54:07.091Z,83.89
2016-07-13T03:55:07.068Z,83.89
2016-07-13T03:56:07.048Z,83.4
2016-07-13T03:57:07.030Z,83.5
2016-07-13T03:58:07.003Z,83.6
2016-07-13T03:59:06.980Z,83.6
2016-07-13T04:00:06.958Z,83.6
2016-07-13T04:01:06.936Z,83.12
2016-07-13T04:02:06.918Z,83.31
2016-07-13T04:03:06.894Z,83.12
2016-07-13T04:04:06.869Z,83.4
2016-07-13T04:05:06.852Z,83.03
2016-07-13T04:06:06.826Z,83.03
2016-07-13T04:07:06.810Z,83.03
2016-07-13T04:08:06.788Z,83.12
2016-07-13T04:09:06.763Z,82.54
2016-07-13T04:10:06.740Z,82.54
2016-07-13T04:11:06.726Z,82.83
2016-07-13T04:12:06.701Z,83.22
2016-07-13T04:13:06.673Z,83.12
2016-07-13T04:14:06.655Z,82.26
2016-07-13T04:15:06.632Z,82.26
2016-07-13T04:16:06.608Z,82.17
2016-07-13T04:17:06.587Z,82.07
2016-07-13T04:18:06.568Z,81.92
2016-07-13T04:19:06.544Z,82.07
2016-07-13T04:20:06.521Z,82.26
2016-07-13T04:21:06.501Z,82.4
2016-07-13T04:22:06.482Z,81.92
2016-07-13T04:23:06.458Z,81.92
2016-07-13T04:24:06.437Z,81.54
2016-07-13T04:25:06.417Z,81.63
2016-07-13T04:26:06.395Z,81.73
2016-07-13T04:27:06.373Z,82.01
2016-07-13T04:28:06.358Z,81.73
2016-07-13T04:29:06.330Z,81.34
2016-07-13T04:30:06.311Z,81.44
2016-07-13T04:31:06.288Z,81.25
2016-07-13T04:32:06.267Z,81.05
2016-07-13T04:33:06.245Z,81.25
2016-07-13T04:34:06.227Z,81.15
2016-07-13T04:35:06.204Z,80.87
2016-07-13T04:36:06.182Z,80.58
2016-07-13T04:37:06.162Z,80.58
2016-07-13T04:38:06.142Z,80.38
2016-07-13T04:39:06.119Z,80.67
2016-07-13T04:40:06.097Z,80.77
2016-07-13T04:41:06.076Z,80.77
2016-07-13T04:42:06.055Z,80.87
2016-07-13T04:43:06.034Z,80.87
2016-07-13T04:44:06.013Z,80.38
2016-07-13T04:45:06.001Z,80.29
2016-07-13T04:46:05.972Z,80.58
2016-07-13T04:47:05.952Z,80.38
2016-07-13T04:48:05.932Z,79.91
2016-07-13T04:49:05.908Z,80.24
2016-07-13T04:50:05.889Z,79.75
2016-07-13T04:51:05.869Z,79.85
2016-07-13T04:52:05.845Z,79.81
2016-07-13T04:53:05.826Z,79.75
2016-07-13T04:54:05.812Z,79.57
2016-07-13T04:55:05.785Z,79.75
2016-07-13T04:56:05.767Z,79.57
2016-07-13T04:57:05.744Z,80.04
2016-07-13T04:58:05.723Z,79.57
2016-07-13T04:59:05.703Z,79.47
2016-07-13T05:00:05.682Z,79.47
2016-07-13T05:01:05.662Z,79.57
2016-07-13T05:02:05.644Z,79.37
2016-07-13T05:03:05.622Z,79.37
2016-07-13T05:04:05.601Z,79.47
2016-07-13T05:05:05.578Z,79.08
2016-07-13T05:06:05.560Z,79.37
2016-07-13T05:07:05.538Z,79.66
2016-07-13T05:08:05.517Z,78.99
2016-07-13T05:09:05.500Z,78.89
2016-07-13T05:10:05.477Z,78.8
2016-07-13T05:11:05.461Z,78.99
2016-07-13T05:12:05.438Z,78.89
2016-07-13T05:13:05.418Z,79.08
2016-07-13T05:14:05.395Z,78.89
2016-07-13T05:15:05.377Z,78.51
2016-07-13T05:16:05.356Z,78.61
2016-07-13T05:17:05.335Z,78.61
2016-07-13T05:18:05.313Z,78.61
2016-07-13T05:19:05.297Z,78.42
2016-07-13T05:20:05.340Z,78.7
2016-07-13T05:21:05.257Z,78.42
2016-07-13T05:22:05.240Z,78.22
2016-07-13T05:23:05.217Z,78.22
2016-07-13T05:24:05.192Z,78.32
2016-07-13T05:25:05.183Z,78.32
2016-07-13T05:26:05.152Z,78.42
2016-07-13T05:27:05.130Z,78.27
2016-07-13T05:28:06.021Z,78.27
2016-07-13T05:29:05.096Z,78.32
2016-07-13T05:30:05.068Z,78.64
2016-07-13T05:31:05.053Z,78.45
2016-07-13T05:32:05.030Z,78.84
2016-07-13T05:33:05.011Z,78.17
2016-07-13T05:34:04.989Z,78.27
2016-07-13T05:35:04.967Z,78.45
2016-07-13T05:36:04.949Z,78.64
2016-07-13T05:37:04.928Z,77.97
2016-07-13T05:38:04.908Z,77.69
2016-07-13T05:39:04.888Z,77.97
2016-07-13T05:40:04.869Z,77.78
2016-07-13T05:41:04.848Z,77.59
2016-07-13T05:42:04.831Z,77.44
2016-07-13T05:43:04.810Z,77.06
2016-07-13T05:44:04.788Z,76.77
2016-07-13T05:45:04.769Z,77.15
2016-07-13T05:46:04.751Z,76.29
2016-07-13T05:47:04.729Z,76.1
2016-07-13T05:48:04.714Z,75.71
2016-07-13T05:49:04.692Z,75.65
2016-07-13T05:50:04.675Z,74.98
2016-07-13T05:51:04.657Z,74.89
2016-07-13T05:52:04.636Z,74.51
2016-07-13T05:53:04.619Z,74.26
2016-07-13T05:54:04.600Z,73.87
2016-07-13T05:55:04.582Z,73.68
2016-07-13T05:56:04.561Z,73.3
2016-07-13T05:57:04.545Z,73.1
2016-07-13T05:58:04.527Z,73.39
2016-07-13T05:59:04.507Z,73.1
2016-07-13T06:00:04.490Z,72.63
2016-07-13T06:01:04.471Z,72.53
2016-07-13T06:02:04.452Z,72.63
2016-07-13T06:03:04.437Z,71.89
2016-07-13T06:04:04.418Z,71.8
2016-07-13T06:05:04.398Z,71.8
2016-07-13T06:06:04.381Z,71.22
2016-07-13T06:07:04.364Z,71.31
2016-07-13T06:08:04.345Z,71.06
2016-07-13T06:09:04.331Z,70.49
2016-07-13T06:10:04.315Z,70.39
2016-07-13T06:11:04.295Z,70.49
2016-07-13T06:12:04.275Z,70.78
2016-07-13T06:13:04.260Z,70.1
2016-07-13T06:14:04.248Z,70.29
2016-07-13T06:15:04.227Z,70.1
2016-07-13T06:16:04.214Z,69.43
2016-07-13T06:17:04.196Z,69.34
2016-07-13T06:18:04.178Z,69.72
2016-07-13T06:19:04.156Z,68.76
2016-07-13T06:20:04.145Z,69.24
2016-07-13T06:21:04.131Z,68.95
2016-07-13T06:22:04.107Z,68.57
2016-07-13T06:23:04.098Z,68.57
2016-07-13T06:24:04.077Z,68.08
2016-07-13T06:25:04.059Z,68.28
2016-07-13T06:26:04.045Z,68.37
2016-07-13T06:27:04.029Z,68.18
2016-07-13T06:28:04.015Z,68.47
2016-07-13T06:29:03.996Z,68.08
2016-07-13T06:30:03.981Z,67.74
2016-07-13T06:31:03.963Z,67.35
2016-07-13T06:32:03.950Z,67.45
2016-07-13T06:33:03.935Z,67.07
2016-07-13T06:34:03.925Z,67.07
2016-07-13T06:35:03.903Z,67.07
2016-07-13T06:36:03.891Z,66.71
2016-07-13T06:37:03.872Z,66.42
2016-07-13T06:38:03.856Z,66.14
2016-07-13T06:39:03.844Z,65.75
2016-07-13T06:40:04.537Z,65.56
2016-07-13T06:41:03.814Z,64.82
2016-07-13T06:42:03.808Z,65.11
2016-07-13T06:43:03.789Z,64.15
2016-07-13T06:44:03.772Z,63.86
2016-07-13T06:45:03.761Z,64.05
2016-07-13T06:46:03.743Z,64.15
2016-07-13T06:47:03.734Z,63.67
2016-07-13T06:48:03.720Z,63.7
2016-07-13T06:49:03.706Z,63.41
2016-07-13T06:50:03.695Z,62.83
2016-07-13T06:51:03.678Z,62.74
2016-07-13T06:52:03.666Z,62.64
2016-07-13T06:53:03.658Z,61.97
2016-07-13T06:54:03.641Z,61.32
2016-07-13T06:55:03.631Z,61.32
2016-07-13T06:56:03.615Z,60.75
2016-07-13T06:57:03.604Z,60.84
2016-07-13T06:58:03.592Z,60.75
2016-07-13T06:59:03.579Z,60.55
2016-07-13T07:00:03.568Z,60.17
2016-07-13T07:01:03.554Z,60
2016-07-13T07:02:03.542Z,60.2
2016-07-13T07:03:03.527Z,59.43
2016-07-13T07:04:03.517Z,59.23
2016-07-13T07:05:03.512Z,58.49
2016-07-13T07:06:03.494Z,58.11
2016-07-13T07:07:03.483Z,57.62
2016-07-13T07:08:03.474Z,57.56
2016-07-13T07:09:03.458Z,57.07
2016-07-13T07:10:03.448Z,56.98
2016-07-13T07:11:03.436Z,56.4
2016-07-13T07:12:03.424Z,56.4
2016-07-13T07:13:03.420Z,56.47
2016-07-13T07:14:03.400Z,56.3
2016-07-13T07:15:03.389Z,55.82
2016-07-13T07:16:04.212Z,55.73
2016-07-13T07:17:03.368Z,56.11
2016-07-13T07:18:03.354Z,55.34
2016-07-13T07:19:03.345Z,55.24
2016-07-13T07:20:03.332Z,55.05
2016-07-13T07:21:03.319Z,55.24
2016-07-13T07:22:03.308Z,55.05
2016-07-13T07:23:03.299Z,54.86
2016-07-13T07:24:03.291Z,55.12
2016-07-13T07:25:03.272Z,55.31
2016-07-13T07:26:03.260Z,55.31
2016-07-13T07:27:03.252Z,55.41
2016-07-13T07:28:03.235Z,55.12
2016-07-13T07:29:03.223Z,55.22
2016-07-13T07:30:03.207Z,54.93
2016-07-13T07:31:03.198Z,55.12
2016-07-13T07:32:03.186Z,54.93
2016-07-13T07:33:03.172Z,54.74
2016-07-13T07:34:03.160Z,54.93
2016-07-13T07:35:03.148Z,55
2016-07-13T07:36:03.138Z,54.54
2016-07-13T07:37:03.121Z,54.16
2016-07-13T07:38:03.112Z,54.35
2016-07-13T07:39:03.100Z,54.16
2016-07-13T07:40:03.086Z,53.77
2016-07-13T07:41:03.076Z,53.58
2016-07-13T07:42:03.072Z,53.39
2016-07-13T07:43:03.050Z,53.09
2016-07-13T07:44:03.038Z,52.55
2016-07-13T07:45:03.028Z,51.87
2016-07-13T07:46:03.017Z,51.77
2016-07-13T07:47:03.004Z,51.29
2016-07-13T07:48:02.994Z,51.03
2016-07-13T07:49:02.982Z,50.74
2016-07-13T07:50:02.971Z,50.64
2016-07-13T07:51:02.965Z,50.26
2016-07-13T07:52:02.950Z,49.9
2016-07-13T07:53:02.944Z,49.32
2016-07-13T07:54:02.929Z,48.83
2016-07-13T07:55:02.919Z,49.02
2016-07-13T07:56:02.909Z,48.37
2016-07-13T07:57:02.911Z,47.31
2016-07-13T07:58:02.891Z,46.66
2016-07-13T07:59:02.881Z,46.47
2016-07-13T08:00:02.874Z,46.47
2016-07-13T08:01:02.865Z,46.37
2016-07-13T08:02:02.852Z,45.79
2016-07-13T08:03:02.843Z,44.7
2016-07-13T08:04:03.586Z,44.6
2016-07-13T08:05:02.861Z,44.03
2016-07-13T08:06:02.814Z,44.29
2016-07-13T08:07:02.806Z,44.39
2016-07-13T08:08:02.797Z,44.01
2016-07-13T08:09:02.784Z,43.98
2016-07-13T08:10:02.774Z,43.62
2016-07-13T08:11:02.763Z,44.01
2016-07-13T08:12:02.750Z,43.52
2016-07-13T08:13:02.740Z,43.7
2016-07-13T08:14:02.734Z,43.7
2016-07-13T08:15:02.719Z,43.5
2016-07-13T08:16:02.705Z,43.7
2016-07-13T08:17:02.695Z,43.5
2016-07-13T08:18:02.682Z,43.21
2016-07-13T08:19:02.672Z,42.54
2016-07-13T08:20:02.664Z,42.66
2016-07-13T08:21:02.648Z,42.36
2016-07-13T08:22:02.635Z,42.36
2016-07-13T08:23:02.626Z,42
2016-07-13T08:24:02.616Z,42.1
2016-07-13T08:25:02.606Z,41.52
2016-07-13T08:26:02.596Z,41.03
2016-07-13T08:27:02.582Z,41.35
2016-07-13T08:28:02.575Z,41.25
2016-07-13T08:29:02.565Z,40.96
2016-07-13T08:30:02.555Z,40.77
2016-07-13T08:31:02.542Z,40.86
2016-07-13T08:32:02.536Z,40.28
2016-07-13T08:33:02.525Z,40.67
2016-07-13T08:34:02.513Z,40.57
2016-07-13T08:35:02.506Z,40.28
2016-07-13T08:36:02.495Z,40.19
2016-07-13T08:37:02.483Z,39.8
2016-07-13T08:38:02.473Z,39.7
2016-07-13T08:39:02.463Z,39.8
2016-07-13T08:40:02.453Z,39.39
2016-07-13T08:41:02.441Z,39.87
2016-07-13T08:42:02.432Z,39.87
2016-07-13T08:43:02.422Z,39.59
2016-07-13T08:44:02.409Z,39.78
2016-07-13T08:45:02.399Z,39.49
2016-07-13T08:46:02.392Z,39.01
2016-07-13T08:47:02.377Z,38.81
2016-07-13T08:48:02.367Z,39.29
2016-07-13T08:49:02.355Z,38.71
2016-07-13T08:50:02.344Z,38.89
2016-07-13T08:51:02.332Z,38.99
2016-07-13T08:52:02.326Z,38.7
2016-07-13T08:53:02.310Z,38.51
2016-07-13T08:54:02.298Z,38.41
2016-07-13T08:55:02.286Z,38.7
2016-07-13T08:56:02.278Z,38.7
2016-07-13T08:57:02.958Z,38.79
2016-07-13T08:58:02.250Z,39.09
2016-07-13T08:59:02.242Z,39.09
2016-07-13T09:00:02.229Z,38.99
2016-07-13T09:01:02.217Z,39.09
2016-07-13T09:02:02.218Z,38.89
2016-07-13T09:03:02.195Z,39.09
2016-07-13T09:04:02.182Z,39.47
2016-07-13T09:05:02.172Z,39.66
2016-07-13T09:06:02.161Z,39.37
2016-07-13T09:07:02.146Z,39.95
2016-07-13T09:08:02.135Z,39.95
2016-07-13T09:09:02.130Z,39.86
2016-07-13T09:10:02.112Z,39.66
2016-07-13T09:11:02.099Z,39.49
2016-07-13T09:12:02.088Z,39.59
2016-07-13T09:13:02.078Z,39.49
2016-07-13T09:14:02.066Z,39.39
2016-07-13T09:15:02.051Z,39.95
2016-07-13T09:16:02.041Z,39.76
2016-07-13T09:17:02.031Z,40.15
2016-07-13T09:18:02.029Z,39.76
2016-07-13T09:19:02.012Z,39.86
2016-07-13T09:20:02.691Z,40.63
2016-07-13T09:21:01.985Z,40.53
2016-07-13T09:22:01.969Z,40.12
2016-07-13T09:23:01.961Z,40.8
2016-07-13T09:24:01.949Z,41.19
2016-07-13T09:25:01.934Z,41.96
2016-07-13T09:26:01.926Z,42.03
2016-07-13T09:27:01.911Z,42.13
2016-07-13T09:28:01.896Z,42.05
2016-07-13T09:29:01.885Z,41.67
2016-07-13T09:30:01.872Z,41.77
2016-07-13T09:31:01.861Z,41.48
2016-07-13T09:32:01.847Z,41.19
2016-07-13T09:33:01.836Z,41.28
2016-07-13T09:34:01.820Z,41.09
2016-07-13T09:35:01.843Z,40.61
2016-07-13T09:36:01.796Z,40.9
2016-07-13T09:37:01.782Z,40.12
2016-07-13T09:38:01.770Z,40.61
2016-07-13T09:39:01.758Z,40.59
2016-07-13T09:40:01.744Z,40.88
2016-07-13T09:41:01.731Z,40.69
2016-07-13T09:42:01.718Z,40.69
2016-07-13T09:43:01.706Z,40.8
2016-07-13T09:44:01.692Z,40.9
2016-07-13T09:45:01.678Z,40.9
2016-07-13T09:46:02.358Z,40.32
2016-07-13T09:47:01.652Z,40.61
2016-07-13T09:48:01.639Z,40.7
2016-07-13T09:49:01.631Z,40.34
2016-07-13T09:50:01.616Z,39.84
2016-07-13T09:51:01.602Z,39.84
2016-07-13T09:52:01.589Z,39.84
2016-07-13T09:53:01.633Z,40.03
2016-07-13T09:54:01.564Z,39.84
2016-07-13T09:55:01.551Z,39.94
2016-07-13T09:56:01.540Z,39.84
2016-07-13T09:57:01.527Z,39.45
2016-07-13T09:58:01.520Z,39.36
2016-07-13T09:59:01.499Z,38.87
2016-07-13T10:00:01.490Z,38.79
2016-07-13T10:01:01.477Z,38.41
2016-07-13T10:02:01.466Z,38.41
2016-07-13T10:03:01.452Z,38.21
2016-07-13T10:04:01.467Z,38.21
2016-07-13T10:05:01.428Z,37.83
2016-07-13T10:06:01.416Z,37.73
2016-07-13T10:07:01.406Z,37.15
2016-07-13T10:08:01.488Z,37.06
2016-07-13T10:09:01.379Z,36.57
2016-07-13T10:10:01.368Z,36.38
2016-07-13T10:11:01.359Z,36.19
2016-07-13T10:12:01.344Z,36.19
2016-07-13T10:13:01.332Z,36.19
2016-07-13T10:14:01.323Z,36.38
2016-07-13T10:15:01.309Z,35.61
2016-07-13T10:16:01.298Z,35.42
2016-07-13T10:17:01.287Z,35.42
2016-07-13T10:18:01.274Z,35.32
2016-07-13T10:19:01.262Z,35.32
2016-07-13T10:20:01.309Z,35.59
2016-07-13T10:21:01.238Z,35.78
2016-07-13T10:22:01.227Z,36.17
2016-07-13T10:23:01.218Z,36.65
2016-07-13T10:24:01.203Z,36.85
2016-07-13T10:25:01.190Z,37.04
2016-07-13T10:26:01.178Z,37.23
2016-07-13T10:27:01.168Z,37.52
2016-07-13T10:28:01.151Z,37.43
2016-07-13T10:29:01.140Z,38.1
2016-07-13T10:30:01.129Z,38.39
2016-07-13T10:31:01.120Z,38.49
2016-07-13T10:32:01.115Z,38.58
2016-07-13T10:33:01.092Z,38.76
2016-07-13T10:34:01.075Z,38.76
2016-07-13T10:35:01.064Z,38.58
2016-07-13T10:36:01.051Z,38.68
2016-07-13T10:37:01.038Z,38.58
2016-07-13T10:38:01.033Z,38.58
2016-07-13T10:39:01.017Z,38.41
2016-07-13T10:40:01.000Z,38.41
2016-07-13T10:41:01.002Z,38.12
2016-07-13T10:42:00.978Z,37.95
2016-07-13T10:43:00.965Z,37.37
2016-07-13T10:44:00.955Z,37.75
2016-07-13T10:45:00.940Z,37.75
2016-07-13T10:46:00.929Z,37.56
2016-07-13T10:47:00.917Z,37.65
2016-07-13T10:48:00.908Z,37.56
2016-07-13T10:49:00.895Z,37.56
2016-07-13T10:50:00.883Z,37.17
2016-07-13T10:51:00.876Z,37.37
2016-07-13T10:52:00.865Z,36.8
2016-07-13T10:53:00.852Z,36.8
2016-07-13T10:54:00.841Z,36.42
2016-07-13T10:55:00.832Z,36.44
2016-07-13T10:56:00.824Z,35.66
2016-07-13T10:57:00.810Z,35.29
2016-07-13T10:58:00.801Z,34.91
2016-07-13T10:59:00.801Z,34.92
2016-07-13T11:00:00.786Z,34.25
2016-07-13T11:01:00.775Z,33.78
2016-07-13T11:02:00.767Z,33.7
2016-07-13T11:03:00.919Z,33.31
2016-07-13T11:04:00.750Z,33.22
2016-07-13T11:05:00.745Z,33.23
2016-07-13T11:06:00.741Z,33.42
2016-07-13T11:07:00.729Z,33.51
2016-07-13T11:08:00.724Z,33.41
2016-07-13T11:09:00.717Z,33.33
2016-07-13T11:10:00.707Z,33.42
2016-07-13T11:11:00.706Z,33.14
2016-07-13T11:12:00.697Z,33.23
2016-07-13T11:13:00.691Z,33.23
2016-07-13T11:14:00.682Z,33.23
2016-07-13T11:15:00.674Z,33.33
2016-07-13T11:16:00.669Z,33.51
2016-07-13T11:17:00.659Z,33.41
2016-07-13T11:18:00.649Z,33.31
2016-07-13T11:19:00.641Z,32.92
2016-07-13T11:20:00.632Z,32.65
2016-07-13T11:21:00.627Z,32.26
2016-07-13T11:22:00.617Z,31.99
2016-07-13T11:23:00.611Z,31.79
2016-07-13T11:24:00.619Z,31.7
2016-07-13T11:25:00.598Z,31.49
2016-07-13T11:26:00.588Z,31.49
2016-07-13T11:27:00.588Z,31.78
2016-07-13T11:28:00.574Z,31.86
2016-07-13T11:29:00.564Z,32.24
2016-07-13T11:30:00.558Z,32.15
2016-07-13T11:31:00.550Z,32.24
2016-07-13T11:32:00.542Z,32.15
2016-07-13T11:33:00.534Z,31.96
2016-07-13T11:34:00.526Z,31.96
2016-07-13T11:35:00.517Z,31.96
2016-07-13T11:36:00.510Z,32.06
2016-07-13T11:37:00.502Z,32.15
2016-07-13T11:38:00.490Z,32.44
2016-07-13T11:39:00.485Z,32.54
2016-07-13T11:40:00.474Z,32.64
2016-07-13T11:41:00.464Z,32.64
2016-07-13T11:42:00.456Z,32.54
2016-07-13T11:43:00.449Z,32.54
2016-07-13T11:44:00.446Z,32.64
2016-07-13T11:45:00.443Z,32.73
2016-07-13T11:46:00.422Z,32.73
2016-07-13T11:47:00.417Z,32.73
2016-07-13T11:48:00.408Z,33.02
2016-07-13T11:49:00.399Z,33.02
2016-07-13T11:50:00.388Z,33.22
2016-07-13T11:51:00.393Z,33.33
2016-07-13T11:52:00.374Z,33.42
2016-07-13T11:53:00.362Z,33.51
2016-07-13T11:54:00.355Z,33.31
2016-07-13T11:55:00.355Z,33.41
2016-07-13T11:56:00.341Z,33.6
2016-07-13T11:57:00.330Z,33.7
2016-07-13T11:58:00.332Z,33.99
2016-07-13T11:59:00.311Z,33.87
2016-07-13T12:00:00.302Z,33.97
2016-07-13T12:01:00.295Z,33.99
2016-07-13T12:02:00.287Z,34.07
2016-07-13T12:03:00.288Z,34.07
2016-07-13T12:04:00.268Z,33.97
2016-07-13T12:05:00.259Z,34.27
2016-07-13T12:06:00.252Z,34.27
2016-07-13T12:07:00.241Z,34.27
2016-07-13T12:08:00.233Z,34.94
2016-07-13T12:09:00.225Z,34.45
2016-07-13T12:10:00.213Z,34.94
2016-07-13T12:11:00.202Z,34.94
2016-07-13T12:12:00.887Z,34.92
2016-07-13T12:13:00.190Z,35.13
2016-07-13T12:14:00.178Z,35.62
2016-07-13T12:15:00.164Z,35.41
2016-07-13T12:16:00.156Z,35.8
2016-07-13T12:17:00.148Z,36.47
2016-07-13T12:18:00.137Z,36.28
2016-07-13T12:19:00.125Z,36.16
2016-07-13T12:20:00.114Z,36.26
2016-07-13T12:21:00.103Z,36.36
2016-07-13T12:22:00.094Z,36.36
2016-07-13T12:23:00.109Z,36.26
2016-07-13T12:24:00.073Z,36.36
2016-07-13T12:25:00.063Z,36.55
2016-07-13T12:26:00.063Z,37.12
2016-07-13T12:27:00.039Z,37.02
2016-07-13T12:28:00.035Z,37.21
2016-07-13T12:29:00.023Z,37.79
2016-07-13T12:30:00.656Z,37.58
2016-07-13T12:30:59.992Z,38.35
2016-07-13T12:31:59.983Z,38.35
2016-07-13T12:32:59.970Z,38.64
2016-07-13T12:33:59.961Z,38.54
2016-07-13T12:34:59.948Z,38.54
2016-07-13T12:35:59.937Z,38.64
2016-07-13T12:36:59.924Z,38.93
2016-07-13T12:37:59.912Z,39.49
2016-07-13T12:38:59.899Z,39.39
2016-07-13T12:39:59.888Z,39.78
2016-07-13T12:41:01.144Z,39.87
2016-07-13T12:41:59.863Z,39.78
2016-07-13T12:42:59.852Z,39.78
2016-07-13T12:43:59.838Z,39.69
2016-07-13T12:45:00.524Z,39.97
2016-07-13T12:45:59.815Z,40.36
2016-07-13T12:46:59.803Z,40.55
2016-07-13T12:47:59.792Z,40.36
2016-07-13T12:48:59.776Z,40.84
2016-07-13T12:49:59.765Z,40.63
2016-07-13T12:50:59.751Z,41.2
2016-07-13T12:51:59.738Z,41.2
2016-07-13T12:52:59.727Z,40.82
2016-07-13T12:53:59.715Z,41.4
2016-07-13T12:54:59.699Z,41.3
2016-07-13T12:55:59.690Z,41.78